createdAt,value
2022-12-23T00:01:35.962Z,26.50
2022-12-23T00:04:06.002Z,22.90
2022-12-23T00:06:35.533Z,27.30
2022-12-23T00:09:06.028Z,27.60
2022-12-23T00:11:55.457Z,32.80
2022-12-23T00:14:43.938Z,21.20
2022-12-23T00:17:28.875Z,19.40
2022-12-23T00:20:03.835Z,24.10
2022-12-23T00:22:52.163Z,25.00
2022-12-23T00:25:40.631Z,22.10
2022-12-23T00:28:15.088Z,19.90
2022-12-23T00:30:55.287Z,21.20
2022-12-23T00:33:32.043Z,20.40
2022-12-23T00:36:02.229Z,18.70
2022-12-23T00:38:50.382Z,19.80
2022-12-23T00:41:38.391Z,19.00
2022-12-23T00:44:07.478Z,20.10
2022-12-23T00:46:37.309Z,22.70
2022-12-23T00:49:25.542Z,36.00
2022-12-23T00:51:54.746Z,42.20
2022-12-23T00:54:24.447Z,37.60
2022-12-23T00:56:54.240Z,27.50
2022-12-23T00:59:23.369Z,22.50
2022-12-23T01:02:11.549Z,21.00
2022-12-23T01:04:59.308Z,16.50
2022-12-23T01:07:28.516Z,16.90
2022-12-23T01:09:57.796Z,16.80
2022-12-23T01:12:27.619Z,15.90
2022-12-23T01:14:56.931Z,15.50
2022-12-23T01:17:26.093Z,16.70
2022-12-23T01:19:55.224Z,18.70
2022-12-23T01:22:24.404Z,17.50
2022-12-23T01:24:53.734Z,18.30
2022-12-23T01:27:22.926Z,18.80
2022-12-23T01:29:52.095Z,17.30
2022-12-23T01:32:21.493Z,18.90
2022-12-23T01:34:50.859Z,18.70
2022-12-23T01:37:22.509Z,21.40
2022-12-23T01:39:51.801Z,24.20
2022-12-23T01:42:40.092Z,23.70
2022-12-23T01:45:31.348Z,23.70
2022-12-23T01:48:26.901Z,20.50
2022-12-23T01:51:05.043Z,18.40
2022-12-23T01:53:43.193Z,19.10
2022-12-23T01:56:37.068Z,20.20
2022-12-23T01:59:37.405Z,20.20
2022-12-23T02:02:26.037Z,21.20
2022-12-23T02:04:56.556Z,21.60
2022-12-23T02:07:47.206Z,22.40
2022-12-23T02:10:16.876Z,18.90
2022-12-23T02:12:51.867Z,20.70
2022-12-23T02:15:56.662Z,21.10
2022-12-23T02:18:47.654Z,22.40
2022-12-23T02:21:44.171Z,21.90
2022-12-23T02:24:25.809Z,20.40
2022-12-23T02:27:26.927Z,21.00
2022-12-23T02:30:47.532Z,19.40
2022-12-23T02:33:37.279Z,21.00
2022-12-23T02:36:38.379Z,19.60
2022-12-23T02:39:48.513Z,19.40
2022-12-23T02:42:58.839Z,19.30
2022-12-23T02:45:56.880Z,19.60
2022-12-23T02:48:53.921Z,25.60
2022-12-23T02:51:29.472Z,23.50
2022-12-23T02:54:04.766Z,20.80
2022-12-23T02:56:37.121Z,21.20
2022-12-23T02:59:22.079Z,25.30
2022-12-23T03:01:53.374Z,28.90
2022-12-23T03:04:25.546Z,27.20
2022-12-23T03:06:57.787Z,24.00
2022-12-23T03:09:59.719Z,24.40
2022-12-23T03:13:03.385Z,24.50
2022-12-23T03:16:15.640Z,24.30
2022-12-23T03:19:25.947Z,21.80
2022-12-23T03:22:28.192Z,23.70
2022-12-23T03:25:17.560Z,26.00
2022-12-23T03:27:55.151Z,27.60
2022-12-23T03:30:28.076Z,30.10
2022-12-23T03:33:08.160Z,29.40
2022-12-23T03:35:44.759Z,28.40
2022-12-23T03:38:17.751Z,27.40
2022-12-23T03:41:14.028Z,28.40
2022-12-23T03:43:51.251Z,29.50
2022-12-23T03:46:31.111Z,27.50
2022-12-23T03:49:07.265Z,29.90
2022-12-23T03:52:21.065Z,30.20
2022-12-23T03:54:58.041Z,32.80
2022-12-23T03:57:55.864Z,34.00
2022-12-23T04:00:30.544Z,34.60
2022-12-23T04:03:24.900Z,38.00
2022-12-23T04:06:00.743Z,36.90
2022-12-23T04:08:37.585Z,38.20
2022-12-23T04:11:07.191Z,35.00
2022-12-23T04:16:08.629Z,37.30
2022-12-23T04:18:37.843Z,39.90
2022-12-23T04:21:06.920Z,40.20
2022-12-23T04:23:36.202Z,39.60
2022-12-23T04:26:05.292Z,39.70
2022-12-23T04:28:34.415Z,38.90
2022-12-23T04:31:03.745Z,43.80
2022-12-23T04:33:33.240Z,39.00
2022-12-23T04:36:02.638Z,40.40
2022-12-23T04:38:35.271Z,39.80
2022-12-23T04:41:08.052Z,37.40
2022-12-23T04:43:37.646Z,36.50
2022-12-23T04:46:07.492Z,37.50
2022-12-23T04:48:37.027Z,35.10
2022-12-23T04:51:06.646Z,33.00
2022-12-23T04:53:37.909Z,32.20
2022-12-23T04:56:07.912Z,31.30
2022-12-23T04:58:37.815Z,29.60
2022-12-23T05:01:11.293Z,30.80
2022-12-23T05:03:43.091Z,32.00
2022-12-23T05:06:14.946Z,43.90
2022-12-23T05:08:44.471Z,37.50
2022-12-23T05:11:13.840Z,39.20
2022-12-23T05:13:43.565Z,33.90
2022-12-23T05:16:13.063Z,31.40
2022-12-23T05:18:42.463Z,33.80
2022-12-23T05:21:11.928Z,34.70
2022-12-23T05:23:42.727Z,34.70
2022-12-23T05:26:12.330Z,32.50
2022-12-23T05:28:43.206Z,33.10
2022-12-23T05:31:13.886Z,31.00
2022-12-23T05:33:44.202Z,29.50
2022-12-23T05:36:13.727Z,31.80
2022-12-23T05:38:42.805Z,31.50
2022-12-23T05:41:11.936Z,34.20
2022-12-23T05:43:41.460Z,34.60
2022-12-23T05:46:10.555Z,32.20
2022-12-23T05:48:39.695Z,32.80
2022-12-23T05:51:08.973Z,31.30
2022-12-23T05:53:38.127Z,33.40
2022-12-23T05:56:08.123Z,34.10
2022-12-23T05:58:39.648Z,32.70
2022-12-23T06:01:10.574Z,34.70
2022-12-23T06:03:42.793Z,31.20
2022-12-23T06:06:12.253Z,34.00
2022-12-23T06:08:41.466Z,35.10
2022-12-23T06:11:10.736Z,34.50
2022-12-23T06:13:39.984Z,33.80
2022-12-23T06:16:09.267Z,31.60
2022-12-23T06:18:38.712Z,34.40
2022-12-23T06:21:07.729Z,32.70
2022-12-23T06:23:36.937Z,34.70
2022-12-23T06:26:06.449Z,33.50
2022-12-23T06:28:36.150Z,31.90
2022-12-23T06:31:09.183Z,31.00
2022-12-23T06:33:39.314Z,30.80
2022-12-23T06:36:09.471Z,30.60
2022-12-23T06:38:40.301Z,30.30
2022-12-23T06:41:14.937Z,32.50
2022-12-23T06:43:45.676Z,35.00
2022-12-23T06:46:20.614Z,29.90
2022-12-23T06:48:52.846Z,30.40
2022-12-23T06:51:30.615Z,27.20
2022-12-23T06:54:02.153Z,27.20
2022-12-23T06:56:34.974Z,26.70
2022-12-23T06:59:06.624Z,27.30
2022-12-23T07:01:41.171Z,27.80
2022-12-23T07:04:13.864Z,31.00
2022-12-23T07:06:43.392Z,30.70
2022-12-23T07:09:15.490Z,28.70
2022-12-23T07:11:49.316Z,31.90
2022-12-23T07:14:18.947Z,34.30
2022-12-23T07:16:49.907Z,33.00
2022-12-23T07:19:22.289Z,35.40
2022-12-23T07:21:51.906Z,34.00
2022-12-23T07:24:21.387Z,36.40
2022-12-23T07:26:52.512Z,40.00
2022-12-23T07:29:22.206Z,41.70
2022-12-23T07:31:51.642Z,33.20
2022-12-23T07:34:22.143Z,32.90
2022-12-23T07:36:51.332Z,41.50
2022-12-23T07:39:22.014Z,30.50
2022-12-23T07:42:03.810Z,31.70
2022-12-23T07:44:40.865Z,30.30
2022-12-23T07:47:14.547Z,32.40
2022-12-23T07:49:43.798Z,26.70
2022-12-23T07:52:18.511Z,27.20
2022-12-23T07:54:47.678Z,28.20
2022-12-23T07:57:16.909Z,30.30
2022-12-23T07:59:46.355Z,29.00
2022-12-23T08:02:15.875Z,26.70
2022-12-23T08:04:46.442Z,28.70
2022-12-23T08:07:17.490Z,26.00
2022-12-23T08:09:46.728Z,27.80
2022-12-23T08:12:16.608Z,26.80
2022-12-23T08:14:48.553Z,29.20
2022-12-23T08:17:17.790Z,29.40
2022-12-23T08:19:49.409Z,29.20
2022-12-23T08:22:18.564Z,30.50
2022-12-23T08:24:49.225Z,33.90
2022-12-23T08:27:21.122Z,29.70
2022-12-23T08:29:50.224Z,40.00
2022-12-23T08:32:19.383Z,41.90
2022-12-23T08:34:48.652Z,36.70
2022-12-23T08:37:17.760Z,37.80
2022-12-23T08:39:47.280Z,46.90
2022-12-23T08:42:16.477Z,36.60
2022-12-23T08:44:45.738Z,36.80
2022-12-23T08:47:15.262Z,40.90
2022-12-23T08:49:44.575Z,39.20
2022-12-23T08:52:13.782Z,57.30
2022-12-23T08:54:45.344Z,62.70
2022-12-23T08:57:14.680Z,61.40
2022-12-23T08:59:43.987Z,71.70
2022-12-23T09:02:13.399Z,40.40
2022-12-23T09:04:43.064Z,37.20
2022-12-23T09:07:14.480Z,35.40
2022-12-23T09:09:43.448Z,38.50
2022-12-23T09:12:13.605Z,42.10
2022-12-23T09:14:47.768Z,45.80
2022-12-23T09:17:20.065Z,49.90
2022-12-23T09:19:54.525Z,62.50
2022-12-23T09:22:23.674Z,71.20
2022-12-23T09:24:52.759Z,48.50
2022-12-23T09:27:21.833Z,45.00
2022-12-23T09:29:50.968Z,46.20
2022-12-23T09:32:20.129Z,31.50
2022-12-23T09:34:51.419Z,37.40
2022-12-23T09:37:20.514Z,31.80
2022-12-23T09:39:49.505Z,31.80
2022-12-23T09:42:50.050Z,33.00
2022-12-23T09:45:28.210Z,30.90
2022-12-23T09:47:57.987Z,23.00
2022-12-23T09:50:31.879Z,23.00
2022-12-23T09:53:19.132Z,21.00
2022-12-23T09:55:51.348Z,26.90
2022-12-23T09:58:32.351Z,22.50
2022-12-23T10:01:47.803Z,19.20
2022-12-23T10:04:22.699Z,28.00
2022-12-23T10:07:04.141Z,26.50
2022-12-23T10:09:39.299Z,22.00
2022-12-23T10:12:40.237Z,19.00
2022-12-23T10:15:31.636Z,18.30
2022-12-23T10:18:18.835Z,17.90
2022-12-23T10:21:11.591Z,19.10
2022-12-23T10:23:46.781Z,25.80
2022-12-23T10:26:35.249Z,25.60
2022-12-23T10:29:27.114Z,22.70
2022-12-23T10:32:22.782Z,19.90
2022-12-23T10:35:05.140Z,20.20
2022-12-23T10:37:57.835Z,22.40
2022-12-23T10:41:09.010Z,20.90
2022-12-23T10:43:44.413Z,18.40
2022-12-23T10:46:40.082Z,19.80
2022-12-23T10:49:37.368Z,19.00
2022-12-23T10:52:20.975Z,19.60
2022-12-23T10:54:50.138Z,17.20
2022-12-23T10:57:21.190Z,17.90
2022-12-23T10:59:50.537Z,19.30
2022-12-23T11:02:56.542Z,18.50
2022-12-23T11:05:29.967Z,18.80
2022-12-23T11:08:08.577Z,21.50
2022-12-23T11:10:41.678Z,24.60
2022-12-23T11:13:11.396Z,29.00
2022-12-23T11:15:41.741Z,25.70
2022-12-23T11:18:17.653Z,24.00
2022-12-23T11:21:09.813Z,31.00
2022-12-23T11:23:45.018Z,29.00
2022-12-23T11:26:20.775Z,27.90
2022-12-23T11:29:05.037Z,30.00
2022-12-23T11:31:36.949Z,28.90
2022-12-23T11:34:20.421Z,31.50
2022-12-23T11:37:03.701Z,28.50
2022-12-23T11:39:38.297Z,32.80
2022-12-23T11:42:24.716Z,27.00
2022-12-23T11:44:57.524Z,26.20
2022-12-23T11:47:41.886Z,22.20
2022-12-23T11:50:36.435Z,21.40
2022-12-23T11:53:25.679Z,30.50
2022-12-23T11:56:09.074Z,29.60
2022-12-23T11:59:02.271Z,29.10
2022-12-23T12:01:32.671Z,31.10
2022-12-23T12:04:08.095Z,30.80
2022-12-23T12:06:51.193Z,31.90
2022-12-23T12:09:25.047Z,32.10
2022-12-23T12:12:07.721Z,27.20
2022-12-23T12:14:49.976Z,33.40
2022-12-23T12:20:30.941Z,27.30
2022-12-23T12:23:10.799Z,23.70
2022-12-23T12:25:50.834Z,27.50
2022-12-23T12:28:45.943Z,24.50
2022-12-23T12:31:26.207Z,22.50
2022-12-23T12:34:33.197Z,23.10
2022-12-23T12:37:36.881Z,54.00
2022-12-23T12:40:26.144Z,40.80
2022-12-23T12:43:20.995Z,41.80
2022-12-23T12:46:14.552Z,35.80
2022-12-23T12:49:04.998Z,31.30
2022-12-23T12:51:58.193Z,29.90
2022-12-23T12:54:55.193Z,26.60
2022-12-23T12:57:25.188Z,27.20
2022-12-23T13:00:05.176Z,36.10
2022-12-23T13:02:35.392Z,34.40
2022-12-23T13:05:53.512Z,33.80
2022-12-23T13:09:13.365Z,49.30
2022-12-23T13:12:36.117Z,38.30
2022-12-23T13:15:23.940Z,26.60
2022-12-23T13:18:04.951Z,30.10
2022-12-23T13:20:46.526Z,22.50
2022-12-23T13:23:45.654Z,22.90
2022-12-23T13:26:59.266Z,22.50
2022-12-23T13:29:58.556Z,22.60
2022-12-23T13:33:04.580Z,30.20
2022-12-23T13:36:12.361Z,32.80
2022-12-23T13:39:28.223Z,31.50
2022-12-23T13:42:05.032Z,36.50
2022-12-23T13:44:35.774Z,38.80
2022-12-23T13:48:05.382Z,28.10
2022-12-23T13:51:04.466Z,25.60
2022-12-23T13:53:33.679Z,24.70
2022-12-23T13:56:09.040Z,29.00
2022-12-23T13:58:40.470Z,39.90
2022-12-23T14:01:09.803Z,34.70
2022-12-23T14:03:40.003Z,38.70
2022-12-23T14:06:24.300Z,38.30
2022-12-23T14:08:55.755Z,32.90
2022-12-23T14:11:32.006Z,37.50
2022-12-23T14:14:05.822Z,27.60
2022-12-23T14:17:03.546Z,26.60
2022-12-23T14:20:03.526Z,24.10
2022-12-23T14:23:00.222Z,22.00
2022-12-23T14:26:02.728Z,23.10
2022-12-23T14:31:41.685Z,41.50
2022-12-23T14:34:20.292Z,31.70
2022-12-23T14:37:24.381Z,26.60
2022-12-23T14:39:57.626Z,29.40
2022-12-23T14:42:43.180Z,32.20
2022-12-23T14:45:35.660Z,33.10
2022-12-23T14:48:34.108Z,32.60
2022-12-23T14:51:09.447Z,30.40
2022-12-23T14:54:00.550Z,31.50
2022-12-23T14:56:41.511Z,22.50
2022-12-23T14:59:56.868Z,22.90
2022-12-23T15:02:39.200Z,20.20
2022-12-23T15:05:08.955Z,18.50
2022-12-23T15:07:47.230Z,22.10
2022-12-23T15:10:26.992Z,19.80
2022-12-23T15:13:02.909Z,23.80
2022-12-23T15:15:33.695Z,23.90
2022-12-23T15:18:06.914Z,30.60
2022-12-23T15:20:37.556Z,28.90
2022-12-23T15:23:19.588Z,31.40
2022-12-23T15:25:51.437Z,28.30
2022-12-23T15:30:55.741Z,26.60
2022-12-23T15:36:32.421Z,21.10
2022-12-23T15:39:10.686Z,21.10
2022-12-23T15:41:45.424Z,17.60
2022-12-23T15:44:25.848Z,17.70
2022-12-23T15:46:55.480Z,18.70
2022-12-23T15:49:25.097Z,19.90
2022-12-23T15:52:09.884Z,19.60
2022-12-23T15:55:25.604Z,19.80
2022-12-23T15:57:55.110Z,22.00
2022-12-23T16:00:27.470Z,25.60
2022-12-23T16:03:01.865Z,24.00
2022-12-23T16:05:37.971Z,23.20
2022-12-23T16:08:16.622Z,24.40
2022-12-23T16:11:17.251Z,25.80
2022-12-23T16:14:03.163Z,25.20
2022-12-23T16:16:44.245Z,28.70
2022-12-23T16:19:56.075Z,35.30
2022-12-23T16:22:36.467Z,43.30
2022-12-23T16:25:17.389Z,46.20
2022-12-23T16:27:50.497Z,48.40
2022-12-23T16:30:29.070Z,49.50
2022-12-23T16:33:42.013Z,47.00
2022-12-23T16:36:23.797Z,45.80
2022-12-23T16:39:17.088Z,43.20
2022-12-23T16:41:46.209Z,43.80
2022-12-23T16:44:17.991Z,44.20
2022-12-23T16:46:52.065Z,38.40
2022-12-23T16:49:27.927Z,34.00
2022-12-23T16:52:01.367Z,31.60
2022-12-23T16:54:30.665Z,30.10
2022-12-23T16:57:02.404Z,29.40
2022-12-23T17:02:03.739Z,30.70
2022-12-23T17:04:33.547Z,30.30
2022-12-23T17:07:17.768Z,32.60
2022-12-23T17:09:47.526Z,34.90
2022-12-23T17:12:17.131Z,33.90
2022-12-23T17:14:46.630Z,34.20
2022-12-23T17:17:21.662Z,34.30
2022-12-23T17:22:33.051Z,29.90
2022-12-23T17:25:10.549Z,29.00
2022-12-23T17:27:40.581Z,29.40
2022-12-23T17:30:24.724Z,27.50
2022-12-23T17:33:00.582Z,30.50
2022-12-23T17:35:30.220Z,29.60
2022-12-23T17:38:01.442Z,30.90
2022-12-23T17:40:32.511Z,31.80
2022-12-23T17:43:02.053Z,34.10
2022-12-23T17:45:37.485Z,35.20
2022-12-23T17:48:08.975Z,38.20
2022-12-23T17:50:41.312Z,50.40
2022-12-23T17:53:19.386Z,38.20
2022-12-23T17:55:50.368Z,36.40
2022-12-23T17:58:24.714Z,37.50
2022-12-23T18:03:26.208Z,39.80
2022-12-23T18:06:01.829Z,40.20
2022-12-23T18:08:31.934Z,38.70
2022-12-23T18:11:01.787Z,39.20
2022-12-23T18:13:31.842Z,43.00
2022-12-23T18:16:01.025Z,45.90
2022-12-23T18:18:41.781Z,44.50
2022-12-23T18:21:25.909Z,40.40
2022-12-23T18:23:58.879Z,39.30
2022-12-23T18:26:28.613Z,38.90
2022-12-23T18:29:00.965Z,41.40
2022-12-23T18:31:31.433Z,40.70
2022-12-23T18:34:05.518Z,40.10
2022-12-23T18:36:35.033Z,40.90
2022-12-23T18:39:04.253Z,40.40
2022-12-23T18:41:33.895Z,41.30
2022-12-23T18:44:03.231Z,39.90
2022-12-23T18:46:32.505Z,37.70
2022-12-23T18:49:02.549Z,41.70
2022-12-23T18:51:32.195Z,39.70
2022-12-23T18:54:02.846Z,36.40
2022-12-23T18:56:35.352Z,38.70
2022-12-23T18:59:22.542Z,39.40
2022-12-23T19:01:57.885Z,45.20
2022-12-23T19:04:38.436Z,44.50
2022-12-23T19:07:09.446Z,46.80
2022-12-23T19:09:39.186Z,47.10
2022-12-23T19:12:11.255Z,55.60
2022-12-23T19:14:47.546Z,56.60
2022-12-23T19:17:21.424Z,63.00
2022-12-23T19:19:59.036Z,62.20
2022-12-23T19:22:32.161Z,58.60
2022-12-23T19:25:15.234Z,64.60
2022-12-23T19:28:05.773Z,67.40
2022-12-23T19:30:45.573Z,75.50
2022-12-23T19:33:42.304Z,72.70
2022-12-23T19:36:23.680Z,64.70
2022-12-23T19:39:08.501Z,67.70
2022-12-23T19:41:38.564Z,83.90
2022-12-23T19:44:09.519Z,79.80
2022-12-23T19:46:42.201Z,69.90
2022-12-23T19:49:19.495Z,60.00
2022-12-23T19:51:49.657Z,56.20
2022-12-23T19:54:20.155Z,59.30
2022-12-23T19:56:57.306Z,67.80
2022-12-23T19:59:29.663Z,69.30
2022-12-23T20:02:00.607Z,75.70
2022-12-23T20:04:35.204Z,83.50
2022-12-23T20:09:34.627Z,111.50
2022-12-23T20:12:04.801Z,59.50
2022-12-23T20:14:46.291Z,75.10
2022-12-23T20:17:15.980Z,78.40
2022-12-23T20:19:47.146Z,115.00
2022-12-23T20:22:17.089Z,66.20
2022-12-23T20:24:53.128Z,68.90
2022-12-23T20:27:32.644Z,78.50
2022-12-23T20:30:02.784Z,88.90
2022-12-23T20:32:32.369Z,85.30
2022-12-23T20:35:02.115Z,99.70
2022-12-23T20:37:37.098Z,90.40
2022-12-23T20:40:10.529Z,84.50
2022-12-23T20:42:40.156Z,97.50
2022-12-23T20:45:13.768Z,71.10
2022-12-23T20:47:43.802Z,74.80
2022-12-23T20:50:16.216Z,72.40
2022-12-23T20:55:22.606Z,77.10
2022-12-23T20:57:54.692Z,91.20
2022-12-23T21:00:30.931Z,81.80
2022-12-23T21:03:10.663Z,68.70
2022-12-23T21:06:01.976Z,75.40
2022-12-23T21:08:31.549Z,77.50
2022-12-23T21:11:01.096Z,71.50
2022-12-23T21:13:35.610Z,70.50
2022-12-23T21:16:13.283Z,73.40
2022-12-23T21:18:55.170Z,70.50
2022-12-23T21:21:26.984Z,93.20
2022-12-23T21:24:05.474Z,93.40
2022-12-23T21:26:40.921Z,87.80
2022-12-23T21:29:12.080Z,93.90
2022-12-23T21:31:44.981Z,97.00
2022-12-23T21:34:23.389Z,103.70
2022-12-23T21:36:52.966Z,104.70
2022-12-23T21:39:23.225Z,103.60
2022-12-23T21:41:56.977Z,119.70
2022-12-23T21:44:30.380Z,96.00
2022-12-23T21:47:06.717Z,92.30
2022-12-23T21:50:28.681Z,91.80
2022-12-23T21:53:06.733Z,94.90
2022-12-23T21:55:37.746Z,96.00
2022-12-23T21:58:07.601Z,89.80
2022-12-23T22:00:39.326Z,95.50
2022-12-23T22:03:08.788Z,95.60
2022-12-23T22:05:44.379Z,88.80
2022-12-23T22:08:14.093Z,94.80
2022-12-23T22:10:44.163Z,93.80
2022-12-23T22:13:16.211Z,92.80
2022-12-23T22:18:15.147Z,83.70
2022-12-23T22:20:46.792Z,88.70
2022-12-23T22:23:18.027Z,86.80
2022-12-23T22:25:57.035Z,91.90
2022-12-23T22:28:26.563Z,90.40
2022-12-23T22:31:06.306Z,100.50
2022-12-23T22:33:38.270Z,99.20
2022-12-23T22:36:11.759Z,102.90
2022-12-23T22:38:47.020Z,102.50
2022-12-23T22:41:16.756Z,100.00
2022-12-23T22:43:48.877Z,94.60
2022-12-23T22:46:29.294Z,90.30
2022-12-23T22:49:02.221Z,93.50
2022-12-23T22:51:34.704Z,90.10
2022-12-23T22:54:04.544Z,87.10
2022-12-23T22:56:43.717Z,80.50
2022-12-23T22:59:31.079Z,86.60
2022-12-23T23:02:04.813Z,84.30
2022-12-23T23:04:40.644Z,83.00
2022-12-23T23:07:14.788Z,74.80
2022-12-23T23:09:44.383Z,80.70
2022-12-23T23:12:13.877Z,79.90
2022-12-23T23:14:53.968Z,84.60
2022-12-23T23:17:28.421Z,81.40
2022-12-23T23:19:59.865Z,89.20
2022-12-23T23:22:32.076Z,83.00
2022-12-23T23:25:05.486Z,78.90
2022-12-23T23:27:38.080Z,80.40
2022-12-23T23:30:08.891Z,80.10
2022-12-23T23:32:41.821Z,82.00
2022-12-23T23:35:11.465Z,84.40
2022-12-23T23:37:40.804Z,86.30
2022-12-23T23:40:10.809Z,93.20
2022-12-23T23:42:42.673Z,84.40
2022-12-23T23:45:15.995Z,82.60
2022-12-23T23:47:52.505Z,88.90
2022-12-23T23:50:28.644Z,81.20
2022-12-23T23:53:01.858Z,82.40
2022-12-23T23:55:41.445Z,81.70
2022-12-23T23:58:16.790Z,82.30
